createdAt,value
2022-09-21T00:01:28.041Z,7.20
2022-09-21T00:03:57.920Z,7.21
2022-09-21T00:06:26.677Z,7.24
2022-09-21T00:08:53.801Z,7.24
2022-09-21T00:11:25.037Z,7.19
2022-09-21T00:13:55.326Z,7.16
2022-09-21T00:16:23.133Z,7.33
2022-09-21T00:18:50.575Z,7.48
2022-09-21T00:21:18.427Z,7.60
2022-09-21T00:23:45.859Z,7.65
2022-09-21T00:26:21.705Z,7.65
2022-09-21T00:28:54.728Z,7.63
2022-09-21T00:31:23.138Z,7.56
2022-09-21T00:33:51.264Z,7.53
2022-09-21T00:36:20.646Z,7.47
2022-09-21T00:38:56.609Z,7.45
2022-09-21T00:41:24.785Z,7.44
2022-09-21T00:44:16.549Z,7.37
2022-09-21T00:46:45.334Z,7.34
2022-09-21T00:49:13.162Z,7.28
2022-09-21T00:51:41.458Z,7.22
2022-09-21T00:54:38.317Z,7.16
2022-09-21T00:57:05.734Z,7.13
2022-09-21T00:59:36.114Z,7.08
2022-09-21T01:02:03.449Z,7.06
2022-09-21T01:04:31.789Z,7.00
2022-09-21T01:07:04.167Z,7.00
2022-09-21T01:09:32.132Z,6.95
2022-09-21T01:12:17.171Z,6.89
2022-09-21T01:14:50.247Z,6.68
2022-09-21T01:17:35.867Z,6.88
2022-09-21T01:20:27.219Z,6.89
2022-09-21T01:23:17.449Z,6.92
2022-09-21T01:26:23.137Z,6.96
2022-09-21T01:28:59.255Z,6.91
2022-09-21T01:31:33.124Z,6.84
2022-09-21T01:34:07.680Z,6.81
2022-09-21T01:36:36.321Z,6.81
2022-09-21T01:39:08.857Z,6.81
2022-09-21T01:41:40.517Z,6.82
2022-09-21T01:44:19.934Z,6.81
2022-09-21T01:46:48.525Z,6.81
2022-09-21T01:49:23.120Z,6.87
2022-09-21T01:51:58.275Z,6.96
2022-09-21T01:54:32.661Z,7.02
2022-09-21T01:57:09.331Z,7.01
2022-09-21T02:00:03.977Z,7.02
2022-09-21T02:02:47.806Z,6.98
2022-09-21T02:05:17.774Z,7.01
2022-09-21T02:07:45.428Z,7.07
2022-09-21T02:10:18.534Z,7.05
2022-09-21T02:12:46.955Z,7.05
2022-09-21T02:15:14.090Z,7.05
2022-09-21T02:17:55.998Z,7.05
2022-09-21T02:20:49.096Z,7.00
2022-09-21T02:23:25.162Z,7.01
2022-09-21T02:26:04.067Z,7.05
2022-09-21T02:28:46.485Z,7.11
2022-09-21T02:31:25.504Z,7.18
2022-09-21T02:34:05.011Z,7.26
2022-09-21T02:36:39.656Z,7.27
2022-09-21T02:39:12.394Z,7.24
2022-09-21T02:41:45.239Z,7.19
2022-09-21T02:44:20.027Z,7.15
2022-09-21T02:46:56.031Z,7.18
2022-09-21T02:49:31.638Z,7.19
2022-09-21T02:52:02.411Z,7.23
2022-09-21T02:54:32.140Z,7.19
2022-09-21T02:57:00.570Z,7.09
2022-09-21T02:59:28.310Z,7.02
2022-09-21T03:01:58.521Z,6.95
2022-09-21T03:04:26.114Z,6.94
2022-09-21T03:06:53.130Z,6.88
2022-09-21T03:09:21.242Z,6.83
2022-09-21T03:11:48.080Z,6.83
2022-09-21T03:14:15.018Z,6.86
2022-09-21T03:16:41.824Z,6.81
2022-09-21T03:19:09.027Z,6.74
2022-09-21T03:21:35.773Z,6.71
2022-09-21T03:24:02.689Z,6.64
2022-09-21T03:26:29.729Z,6.59
2022-09-21T03:28:56.453Z,6.52
2022-09-21T03:31:23.278Z,6.46
2022-09-21T03:33:50.190Z,6.42
2022-09-21T03:36:17.141Z,6.53
2022-09-21T03:38:44.364Z,6.50
2022-09-21T03:41:11.254Z,6.41
2022-09-21T03:43:37.997Z,6.30
2022-09-21T03:46:05.130Z,6.28
2022-09-21T03:48:32.705Z,6.21
2022-09-21T03:50:59.508Z,6.18
2022-09-21T03:53:26.405Z,6.16
2022-09-21T03:55:53.154Z,6.13
2022-09-21T03:58:20.080Z,6.09
2022-09-21T04:00:47.969Z,6.06
2022-09-21T04:03:14.716Z,6.07
2022-09-21T04:05:41.550Z,6.05
2022-09-21T04:08:09.765Z,5.98
2022-09-21T04:10:37.028Z,6.00
2022-09-21T04:13:04.859Z,6.00
2022-09-21T04:15:31.805Z,5.98
2022-09-21T04:17:59.233Z,5.96
2022-09-21T04:20:26.080Z,5.94
2022-09-21T04:22:52.965Z,5.90
2022-09-21T04:25:20.450Z,5.88
2022-09-21T04:27:47.407Z,5.81
2022-09-21T04:30:16.370Z,5.76
2022-09-21T04:32:43.959Z,5.71
2022-09-21T04:35:11.009Z,5.66
2022-09-21T04:37:38.022Z,5.64
2022-09-21T04:40:05.769Z,5.58
2022-09-21T04:42:32.835Z,5.57
2022-09-21T04:44:59.581Z,5.56
2022-09-21T04:47:26.505Z,5.58
2022-09-21T04:49:53.648Z,5.54
2022-09-21T04:52:20.774Z,5.53
2022-09-21T04:54:47.984Z,5.55
2022-09-21T04:57:15.319Z,5.50
2022-09-21T04:59:42.116Z,5.49
2022-09-21T05:02:09.282Z,5.45
2022-09-21T05:04:36.684Z,5.49
2022-09-21T05:07:03.590Z,5.51
2022-09-21T05:09:48.845Z,5.56
2022-09-21T05:12:15.680Z,5.55
2022-09-21T05:14:44.106Z,5.58
2022-09-21T05:17:12.387Z,5.67
2022-09-21T05:19:39.399Z,5.64
2022-09-21T05:22:07.102Z,5.59
2022-09-21T05:24:34.389Z,5.57
2022-09-21T05:27:01.889Z,5.68
2022-09-21T05:29:29.026Z,5.69
2022-09-21T05:32:17.523Z,5.83
2022-09-21T05:34:50.243Z,5.85
2022-09-21T05:37:53.895Z,5.83
2022-09-21T05:40:21.372Z,5.85
2022-09-21T05:42:48.836Z,5.95
2022-09-21T05:45:17.132Z,6.13
2022-09-21T05:48:07.479Z,6.23
2022-09-21T05:50:37.599Z,6.31
2022-09-21T05:53:31.030Z,6.32
2022-09-21T05:56:03.684Z,6.33
2022-09-21T05:58:50.934Z,6.33
2022-09-21T06:01:54.944Z,6.34
2022-09-21T06:04:22.082Z,6.47
2022-09-21T06:06:49.277Z,6.58
2022-09-21T06:09:16.055Z,6.59
2022-09-21T06:11:42.881Z,6.58
2022-09-21T06:14:09.659Z,6.60
2022-09-21T06:16:38.378Z,6.62
2022-09-21T06:19:05.285Z,6.62
2022-09-21T06:21:32.509Z,6.68
2022-09-21T06:23:59.730Z,6.74
2022-09-21T06:26:27.707Z,6.79
2022-09-21T06:28:55.084Z,6.88
2022-09-21T06:31:22.672Z,7.00
2022-09-21T06:33:49.398Z,7.17
2022-09-21T06:36:17.495Z,7.12
2022-09-21T06:38:44.335Z,7.24
2022-09-21T06:41:12.087Z,7.78
2022-09-21T06:43:38.859Z,8.41
2022-09-21T06:46:06.137Z,8.85
2022-09-21T06:48:34.167Z,8.85
2022-09-21T06:51:03.152Z,8.78
2022-09-21T06:53:31.419Z,8.66
2022-09-21T06:56:09.790Z,8.52
2022-09-21T06:58:37.943Z,8.50
2022-09-21T07:01:09.940Z,8.51
2022-09-21T07:03:38.158Z,8.62
2022-09-21T07:06:06.076Z,8.73
2022-09-21T07:11:21.010Z,9.03
2022-09-21T07:13:47.838Z,9.15
2022-09-21T07:16:14.584Z,9.29
2022-09-21T07:18:43.909Z,9.36
2022-09-21T07:21:11.994Z,9.48
2022-09-21T07:23:39.097Z,9.54
2022-09-21T07:26:08.698Z,9.69
2022-09-21T07:28:36.041Z,9.90
2022-09-21T07:31:14.626Z,10.07
2022-09-21T07:33:42.800Z,10.37
2022-09-21T07:36:11.244Z,10.82
2022-09-21T07:38:42.389Z,11.64
2022-09-21T07:41:10.933Z,12.68
2022-09-21T07:43:40.876Z,13.56
2022-09-21T07:46:09.583Z,14.35
2022-09-21T07:48:37.739Z,15.11
2022-09-21T07:51:06.322Z,15.87
2022-09-21T07:53:37.837Z,16.40
2022-09-21T07:56:07.486Z,16.99
2022-09-21T07:58:57.867Z,17.73
2022-09-21T08:01:26.014Z,18.27
2022-09-21T08:03:54.990Z,18.78
2022-09-21T08:06:22.821Z,19.19
2022-09-21T08:08:55.056Z,19.71
2022-09-21T08:11:24.374Z,20.13
2022-09-21T08:13:56.654Z,20.33
2022-09-21T08:16:24.195Z,20.81
2022-09-21T08:18:51.590Z,21.14
2022-09-21T08:21:18.914Z,21.45
2022-09-21T08:23:46.032Z,21.53
2022-09-21T08:26:21.312Z,21.55
2022-09-21T08:28:52.758Z,21.96
2022-09-21T08:31:21.904Z,22.14
2022-09-21T08:33:49.937Z,22.37
2022-09-21T08:36:17.923Z,22.64
2022-09-21T08:38:45.261Z,22.56
2022-09-21T08:41:19.922Z,22.90
2022-09-21T08:43:58.122Z,23.33
2022-09-21T08:46:28.831Z,23.59
2022-09-21T08:49:01.750Z,23.73
2022-09-21T08:51:36.130Z,24.08
2022-09-21T08:54:29.323Z,24.33
2022-09-21T08:57:05.760Z,24.80
2022-09-21T08:59:34.601Z,25.00
2022-09-21T09:02:14.846Z,25.17
2022-09-21T09:04:57.280Z,25.41
2022-09-21T09:07:49.084Z,25.48
2022-09-21T09:10:37.780Z,25.70
2022-09-21T09:13:50.299Z,25.87
2022-09-21T09:16:17.245Z,26.43
2022-09-21T09:18:55.117Z,26.71
2022-09-21T09:21:48.123Z,27.31
2022-09-21T09:24:18.028Z,26.66
2022-09-21T09:26:50.662Z,26.93
2022-09-21T09:29:23.407Z,26.74
2022-09-21T09:31:54.843Z,26.03
2022-09-21T09:34:29.402Z,26.57
2022-09-21T09:37:05.773Z,27.07
2022-09-21T09:39:32.672Z,27.14
2022-09-21T09:42:22.092Z,27.12
2022-09-21T09:44:54.749Z,27.13
2022-09-21T09:47:21.454Z,27.80
2022-09-21T09:50:02.261Z,27.80
2022-09-21T09:52:30.112Z,27.80
2022-09-21T09:54:59.843Z,27.82
2022-09-21T09:57:33.072Z,26.18
2022-09-21T10:00:04.391Z,25.48
2022-09-21T10:02:54.417Z,25.71
2022-09-21T10:05:21.252Z,26.73
2022-09-21T10:07:48.134Z,27.58
2022-09-21T10:10:32.694Z,28.00
2022-09-21T10:13:10.818Z,27.29
2022-09-21T10:15:43.790Z,25.97
2022-09-21T10:18:21.261Z,26.14
2022-09-21T10:20:57.636Z,27.60
2022-09-21T10:23:25.348Z,28.25
2022-09-21T10:25:59.131Z,26.71
2022-09-21T10:28:26.931Z,25.37
2022-09-21T10:31:30.488Z,23.50
2022-09-21T10:34:03.664Z,22.29
2022-09-21T10:36:36.337Z,21.04
2022-09-21T10:39:31.036Z,19.97
2022-09-21T10:42:04.058Z,19.61
2022-09-21T10:44:52.077Z,21.26
2022-09-21T10:47:32.096Z,23.61
2022-09-21T10:50:02.420Z,24.96
2022-09-21T10:52:35.814Z,25.93
2022-09-21T10:55:02.907Z,26.09
2022-09-21T10:57:30.649Z,27.17
2022-09-21T10:59:57.477Z,28.26
2022-09-21T11:02:33.380Z,28.87
2022-09-21T11:05:18.068Z,28.80
2022-09-21T11:08:12.648Z,28.15
2022-09-21T11:11:18.105Z,28.82
2022-09-21T11:14:01.142Z,28.22
2022-09-21T11:16:40.560Z,29.05
2022-09-21T11:19:37.978Z,27.92
2022-09-21T11:22:12.066Z,28.80
2022-09-21T11:24:44.734Z,29.10
2022-09-21T11:27:23.497Z,29.57
2022-09-21T11:29:56.820Z,30.57
2022-09-21T11:32:23.579Z,30.90
2022-09-21T11:35:28.993Z,32.11
2022-09-21T11:38:09.966Z,31.13
2022-09-21T11:40:57.947Z,30.21
2022-09-21T11:43:27.828Z,31.04
2022-09-21T11:46:16.374Z,30.73
2022-09-21T11:49:20.761Z,31.40
2022-09-21T11:52:32.974Z,28.96
2022-09-21T11:55:05.232Z,28.63
2022-09-21T11:57:55.067Z,29.18
2022-09-21T12:00:23.373Z,27.49
2022-09-21T12:03:35.228Z,29.33
2022-09-21T12:06:20.469Z,29.58
2022-09-21T12:08:53.322Z,27.07
2022-09-21T12:11:43.909Z,25.14
2022-09-21T12:14:28.502Z,27.07
2022-09-21T12:17:16.000Z,27.15
2022-09-21T12:20:04.136Z,26.07
2022-09-21T12:22:37.467Z,24.06
2022-09-21T12:25:21.942Z,23.27
2022-09-21T12:28:20.719Z,21.88
2022-09-21T12:30:51.415Z,20.46
2022-09-21T12:33:45.324Z,19.30
2022-09-21T12:36:44.623Z,18.18
2022-09-21T12:39:20.635Z,18.32
2022-09-21T12:42:10.177Z,18.29
2022-09-21T12:44:55.925Z,17.68
2022-09-21T12:47:32.762Z,17.92
2022-09-21T12:50:16.147Z,17.92
2022-09-21T12:52:43.507Z,18.09
2022-09-21T12:55:38.809Z,18.34
2022-09-21T12:58:16.217Z,18.28
2022-09-21T13:01:08.913Z,18.33
2022-09-21T13:03:43.944Z,18.78
2022-09-21T13:06:41.034Z,20.11
2022-09-21T13:09:13.179Z,19.81
2022-09-21T13:11:56.714Z,20.38
2022-09-21T13:14:34.743Z,22.92
2022-09-21T13:17:04.613Z,26.67
2022-09-21T13:19:34.276Z,27.95
2022-09-21T13:22:19.996Z,27.41
2022-09-21T13:25:23.811Z,26.66
2022-09-21T13:28:17.203Z,27.22
2022-09-21T13:31:18.478Z,29.19
2022-09-21T13:34:17.292Z,28.83
2022-09-21T13:36:44.277Z,27.63
2022-09-21T13:39:20.580Z,27.66
2022-09-21T13:42:03.799Z,26.53
2022-09-21T13:44:34.125Z,27.30
2022-09-21T13:47:01.706Z,27.48
2022-09-21T13:49:50.821Z,25.40
2022-09-21T13:52:17.537Z,26.75
2022-09-21T13:54:58.104Z,28.76
2022-09-21T13:57:45.579Z,26.88
2022-09-21T14:00:15.189Z,25.42
2022-09-21T14:02:56.614Z,25.08
2022-09-21T14:05:31.782Z,25.58
2022-09-21T14:08:02.442Z,24.65
2022-09-21T14:10:32.207Z,22.78
2022-09-21T14:13:01.326Z,25.52
2022-09-21T14:15:39.513Z,26.72
2022-09-21T14:18:34.705Z,27.83
2022-09-21T14:21:08.312Z,28.77
2022-09-21T14:23:39.225Z,28.50
2022-09-21T14:26:34.101Z,29.10
2022-09-21T14:29:13.496Z,27.95
2022-09-21T14:31:40.574Z,27.94
2022-09-21T14:34:15.907Z,27.79
2022-09-21T14:36:47.354Z,25.58
2022-09-21T14:39:37.507Z,25.13
2022-09-21T14:42:12.521Z,26.10
2022-09-21T14:44:42.477Z,25.49
2022-09-21T14:47:47.546Z,23.79
2022-09-21T14:50:36.144Z,24.43
2022-09-21T14:53:18.919Z,24.94
2022-09-21T14:56:01.061Z,25.31
2022-09-21T14:58:52.773Z,25.67
2022-09-21T15:01:31.690Z,27.03
2022-09-21T15:04:32.703Z,25.52
2022-09-21T15:07:52.280Z,26.11
2022-09-21T15:10:55.611Z,26.95
2022-09-21T15:13:22.696Z,27.04
2022-09-21T15:16:17.821Z,26.04
2022-09-21T15:18:46.841Z,25.65
2022-09-21T15:21:32.971Z,25.71
2022-09-21T15:24:10.885Z,26.60
2022-09-21T15:26:40.451Z,26.21
2022-09-21T15:29:10.799Z,24.09
2022-09-21T15:31:40.334Z,22.56
2022-09-21T15:34:09.531Z,21.63
2022-09-21T15:36:39.525Z,21.64
2022-09-21T15:39:07.102Z,20.27
2022-09-21T15:41:45.516Z,18.42
2022-09-21T15:44:14.879Z,17.36
2022-09-21T15:46:46.814Z,17.20
2022-09-21T15:49:17.872Z,16.90
2022-09-21T15:51:46.082Z,16.61
2022-09-21T15:54:21.310Z,16.41
2022-09-21T15:56:48.320Z,16.26
2022-09-21T15:59:20.774Z,16.06
2022-09-21T16:01:50.738Z,15.88
2022-09-21T16:04:27.078Z,15.73
2022-09-21T16:07:24.357Z,15.57
2022-09-21T16:09:51.642Z,15.79
2022-09-21T16:12:31.310Z,16.07
2022-09-21T16:15:07.299Z,16.85
2022-09-21T16:17:38.503Z,17.73
2022-09-21T16:20:26.000Z,18.59
2022-09-21T16:23:03.393Z,18.28
2022-09-21T16:25:37.119Z,16.61
2022-09-21T16:28:05.927Z,15.77
2022-09-21T16:30:44.831Z,15.38
2022-09-21T16:33:37.660Z,15.17
2022-09-21T16:36:34.039Z,14.97
2022-09-21T16:39:06.182Z,14.75
2022-09-21T16:41:42.264Z,14.57
2022-09-21T16:44:19.780Z,14.40
2022-09-21T16:46:59.290Z,14.24
2022-09-21T16:49:31.251Z,14.13
2022-09-21T16:51:59.379Z,13.95
2022-09-21T16:54:27.738Z,13.81
2022-09-21T16:56:57.490Z,13.61
2022-09-21T16:59:25.673Z,13.55
2022-09-21T17:01:56.397Z,13.48
2022-09-21T17:04:29.680Z,13.37
2022-09-21T17:06:57.089Z,13.29
2022-09-21T17:09:29.198Z,13.22
2022-09-21T17:12:01.231Z,13.07
2022-09-21T17:14:35.630Z,12.92
2022-09-21T17:17:18.481Z,12.84
2022-09-21T17:19:46.954Z,12.77
2022-09-21T17:22:19.694Z,12.71
2022-09-21T17:24:51.661Z,12.59
2022-09-21T17:27:21.445Z,12.46
2022-09-21T17:29:50.031Z,12.34
2022-09-21T17:32:21.208Z,12.24
2022-09-21T17:34:56.295Z,12.14
2022-09-21T17:37:25.180Z,12.12
2022-09-21T17:39:53.665Z,12.02
2022-09-21T17:42:25.167Z,11.89
2022-09-21T17:45:01.717Z,11.72
2022-09-21T17:47:31.155Z,11.53
2022-09-21T17:50:08.476Z,11.31
2022-09-21T17:52:54.026Z,11.12
2022-09-21T17:55:21.304Z,10.95
2022-09-21T17:58:07.050Z,10.78
2022-09-21T18:00:58.426Z,10.72
2022-09-21T18:03:28.155Z,10.62
2022-09-21T18:06:00.844Z,10.55
2022-09-21T18:08:29.645Z,10.50
2022-09-21T18:11:02.691Z,10.46
2022-09-21T18:13:52.300Z,10.38
2022-09-21T18:16:35.106Z,10.42
2022-09-21T18:19:02.720Z,10.38
2022-09-21T18:21:33.241Z,10.34
2022-09-21T18:24:22.171Z,10.31
2022-09-21T18:26:49.939Z,10.26
2022-09-21T18:29:41.157Z,10.19
2022-09-21T18:32:29.768Z,10.13
2022-09-21T18:35:03.530Z,10.07
2022-09-21T18:37:49.868Z,9.98
2022-09-21T18:40:44.429Z,9.88
2022-09-21T18:43:54.730Z,9.77
2022-09-21T18:46:38.355Z,9.68
2022-09-21T18:49:34.806Z,9.60
2022-09-21T18:52:10.711Z,9.56
2022-09-21T18:54:37.937Z,9.52
2022-09-21T18:57:12.315Z,9.49
2022-09-21T18:59:40.353Z,9.47
2022-09-21T19:02:17.320Z,9.51
2022-09-21T19:04:45.120Z,9.57
2022-09-21T19:07:39.907Z,9.54
2022-09-21T19:10:24.561Z,9.46
2022-09-21T19:13:08.711Z,9.35
2022-09-21T19:16:04.847Z,9.25
2022-09-21T19:19:04.424Z,9.15
2022-09-21T19:21:54.935Z,9.09
2022-09-21T19:24:30.496Z,9.01
2022-09-21T19:27:26.557Z,9.00
2022-09-21T19:30:04.543Z,8.95
2022-09-21T19:32:48.155Z,8.91
2022-09-21T19:35:21.293Z,8.88
2022-09-21T19:37:49.399Z,8.91
2022-09-21T19:40:18.080Z,8.91
2022-09-21T19:43:13.390Z,8.92
2022-09-21T19:46:11.930Z,8.96
2022-09-21T19:48:47.434Z,9.02
2022-09-21T19:51:20.379Z,9.12
2022-09-21T19:54:14.674Z,9.15
2022-09-21T19:57:08.855Z,9.16
2022-09-21T19:59:44.896Z,9.12
2022-09-21T20:02:20.041Z,9.09
2022-09-21T20:05:02.609Z,9.12
2022-09-21T20:07:48.190Z,9.10
2022-09-21T20:10:24.141Z,9.14
2022-09-21T20:13:08.071Z,9.17
2022-09-21T20:15:52.240Z,9.22
2022-09-21T20:18:59.032Z,9.27
2022-09-21T20:21:37.298Z,9.27
2022-09-21T20:24:18.090Z,9.27
2022-09-21T20:26:49.013Z,9.34
2022-09-21T20:29:16.240Z,9.40
2022-09-21T20:31:43.468Z,9.39
2022-09-21T20:34:11.129Z,9.42
2022-09-21T20:36:37.910Z,9.43
2022-09-21T20:39:05.041Z,9.45
2022-09-21T20:41:32.228Z,9.46
2022-09-21T20:43:59.463Z,9.44
2022-09-21T20:46:26.355Z,9.48
2022-09-21T20:48:57.321Z,9.46
2022-09-21T20:51:24.041Z,9.42
2022-09-21T20:53:51.558Z,9.43
2022-09-21T20:56:18.269Z,9.38
2022-09-21T20:58:45.013Z,9.31
2022-09-21T21:01:12.260Z,9.31
2022-09-21T21:03:39.120Z,9.24
2022-09-21T21:06:15.937Z,9.09
2022-09-21T21:08:43.225Z,8.96
2022-09-21T21:11:11.142Z,8.80
2022-09-21T21:13:37.956Z,8.70
2022-09-21T21:16:09.453Z,8.65
2022-09-21T21:18:40.271Z,8.58
2022-09-21T21:21:07.166Z,8.49
2022-09-21T21:23:53.865Z,8.41
2022-09-21T21:26:20.699Z,8.41
2022-09-21T21:28:47.519Z,8.43
2022-09-21T21:31:19.398Z,8.48
2022-09-21T21:33:48.135Z,8.48
2022-09-21T21:36:15.048Z,8.53
2022-09-21T21:38:43.172Z,8.50
2022-09-21T21:41:14.189Z,8.49
2022-09-21T21:43:41.968Z,8.46
2022-09-21T21:46:10.431Z,8.52
2022-09-21T21:48:38.655Z,8.58
2022-09-21T21:51:05.806Z,8.71
2022-09-21T21:53:36.136Z,8.82
2022-09-21T21:56:03.653Z,8.88
2022-09-21T21:58:30.425Z,8.89
2022-09-21T22:01:06.065Z,8.82
2022-09-21T22:03:33.612Z,8.77
2022-09-21T22:06:00.397Z,8.76
2022-09-21T22:08:28.297Z,8.69
2022-09-21T22:10:55.048Z,8.63
2022-09-21T22:13:23.623Z,8.52
2022-09-21T22:15:50.803Z,8.36
2022-09-21T22:18:18.048Z,8.27
2022-09-21T22:20:46.029Z,8.17
2022-09-21T22:23:14.503Z,8.12
2022-09-21T22:25:41.731Z,8.02
2022-09-21T22:28:08.937Z,7.91
2022-09-21T22:30:36.088Z,7.93
2022-09-21T22:33:03.167Z,7.95
2022-09-21T22:35:30.400Z,7.89
2022-09-21T22:37:57.198Z,7.84
2022-09-21T22:40:24.074Z,7.78
2022-09-21T22:42:50.831Z,7.73
2022-09-21T22:45:17.553Z,7.67
2022-09-21T22:47:44.299Z,7.64
2022-09-21T22:50:11.086Z,7.61
2022-09-21T22:52:37.866Z,7.67
2022-09-21T22:55:04.957Z,7.76
2022-09-21T22:57:31.731Z,7.82
2022-09-21T22:59:59.100Z,7.89
2022-09-21T23:02:25.827Z,7.82
2022-09-21T23:04:52.529Z,7.75
2022-09-21T23:07:19.240Z,7.71
2022-09-21T23:09:45.986Z,7.64
2022-09-21T23:12:12.724Z,7.62
2022-09-21T23:14:39.532Z,7.55
2022-09-21T23:17:06.279Z,7.54
2022-09-21T23:19:33.064Z,7.50
2022-09-21T23:21:59.878Z,7.44
2022-09-21T23:24:26.980Z,7.34
2022-09-21T23:26:53.717Z,7.19
2022-09-21T23:29:20.470Z,7.06
2022-09-21T23:31:47.331Z,6.90
2022-09-21T23:34:14.847Z,6.76
2022-09-21T23:36:42.926Z,6.70
2022-09-21T23:39:12.466Z,6.64
2022-09-21T23:41:39.560Z,6.67
2022-09-21T23:44:06.463Z,6.65
2022-09-21T23:46:35.752Z,6.66
2022-09-21T23:49:03.051Z,6.61
2022-09-21T23:51:32.722Z,6.54
2022-09-21T23:54:00.597Z,6.43
2022-09-21T23:56:28.579Z,6.35
2022-09-21T23:58:55.608Z,6.31
